createdAt,value
2023-07-23T00:02:28.075Z,1.7
2023-07-23T00:08:46.122Z,2.0
2023-07-23T00:13:46.794Z,1.8
2023-07-23T00:18:47.505Z,1.8
2023-07-23T00:23:48.264Z,1.7
2023-07-23T00:28:48.940Z,1.5
2023-07-23T00:33:49.726Z,1.7
2023-07-23T00:38:50.401Z,1.7
2023-07-23T00:43:51.053Z,1.6
2023-07-23T00:48:51.849Z,1.8
2023-07-23T00:53:52.582Z,1.8
2023-07-23T00:58:53.322Z,1.4
2023-07-23T01:03:54.134Z,1.4
2023-07-23T01:08:54.743Z,1.5
2023-07-23T01:13:55.462Z,1.7
2023-07-23T01:18:56.210Z,1.7
2023-07-23T01:23:56.893Z,2.0
2023-07-23T01:28:57.630Z,1.7
2023-07-23T01:33:58.263Z,1.4
2023-07-23T01:38:58.988Z,1.6
2023-07-23T01:43:59.829Z,1.7
2023-07-23T01:49:00.625Z,1.8
2023-07-23T01:54:01.023Z,1.9
2023-07-23T01:59:01.791Z,1.5
2023-07-23T02:04:02.608Z,1.6
2023-07-23T02:09:03.161Z,1.6
2023-07-23T02:14:03.920Z,1.6
2023-07-23T02:19:04.734Z,1.6
2023-07-23T02:24:05.351Z,1.9
2023-07-23T02:29:06.422Z,1.9
2023-07-23T02:34:06.767Z,1.7
2023-07-23T02:39:07.389Z,1.8
2023-07-23T02:44:08.065Z,2.0
2023-07-23T02:49:08.933Z,2.2
2023-07-23T02:54:09.645Z,1.8
2023-07-23T02:59:10.273Z,1.7
2023-07-23T03:04:10.967Z,1.9
2023-07-23T03:09:11.674Z,1.9
2023-07-23T03:14:12.344Z,1.9
2023-07-23T03:19:13.084Z,1.7
2023-07-23T03:24:13.819Z,1.9
2023-07-23T03:29:14.508Z,1.7
2023-07-23T03:34:15.196Z,1.8
2023-07-23T03:39:16.037Z,1.6
2023-07-23T03:44:16.799Z,2.1
2023-07-23T03:49:17.517Z,1.5
2023-07-23T03:54:18.006Z,1.8
2023-07-23T03:59:18.750Z,1.5
2023-07-23T04:04:19.539Z,1.7
2023-07-23T04:09:20.115Z,2.0
2023-07-23T04:14:20.889Z,1.9
2023-07-23T04:19:21.711Z,1.8
2023-07-23T04:24:22.338Z,1.8
2023-07-23T04:29:23.041Z,2.0
2023-07-23T04:34:23.837Z,1.7
2023-07-23T04:39:24.469Z,1.7
2023-07-23T04:44:25.143Z,2.4
2023-07-23T04:49:26.005Z,1.9
2023-07-23T04:54:26.615Z,2.2
2023-07-23T04:59:27.240Z,2.2
2023-07-23T05:04:27.984Z,2.0
2023-07-23T05:09:28.683Z,1.9
2023-07-23T05:14:29.348Z,1.9
2023-07-23T05:19:30.092Z,1.9
2023-07-23T05:24:30.798Z,2.1
2023-07-23T05:29:31.401Z,2.2
2023-07-23T05:34:32.095Z,2.2
2023-07-23T05:39:32.806Z,2.4
2023-07-23T05:44:33.606Z,2.2
2023-07-23T05:49:34.205Z,2.1
2023-07-23T05:54:34.924Z,2.1
2023-07-23T05:59:35.603Z,1.9
2023-07-23T06:04:36.392Z,2.1
2023-07-23T06:09:36.955Z,1.5
2023-07-23T06:14:37.829Z,2.0
2023-07-23T06:19:38.493Z,1.7
2023-07-23T06:24:39.197Z,1.6
2023-07-23T06:29:39.883Z,1.8
2023-07-23T06:34:40.678Z,1.7
2023-07-23T06:39:41.340Z,1.7
2023-07-23T06:44:42.068Z,1.7
2023-07-23T06:49:42.958Z,1.7
2023-07-23T06:54:43.601Z,1.8
2023-07-23T06:59:44.279Z,1.6
2023-07-23T07:04:45.054Z,1.5
2023-07-23T07:09:45.743Z,1.6
2023-07-23T07:14:46.566Z,1.5
2023-07-23T07:19:47.206Z,1.6
2023-07-23T07:24:47.853Z,1.4
2023-07-23T07:29:48.552Z,1.4
2023-07-23T07:34:49.267Z,1.6
2023-07-23T07:39:49.884Z,1.4
2023-07-23T07:44:50.763Z,1.2
2023-07-23T07:49:51.293Z,1.1
2023-07-23T07:54:51.963Z,1.2
2023-07-23T07:59:52.665Z,1.3
2023-07-23T08:04:57.373Z,1.2
2023-07-23T08:09:54.028Z,1.1
2023-07-23T08:14:54.882Z,0.9
2023-07-23T08:19:55.614Z,1.1
2023-07-23T08:24:56.307Z,0.9
2023-07-23T08:29:56.944Z,1.1
2023-07-23T08:34:57.740Z,0.9
2023-07-23T08:39:58.402Z,0.8
2023-07-23T08:44:59.032Z,0.9
2023-07-23T08:50:01.373Z,1.0
2023-07-23T08:55:00.568Z,1.3
2023-07-23T09:00:01.304Z,1.0
2023-07-23T09:05:02.096Z,0.9
2023-07-23T09:10:02.752Z,0.9
2023-07-23T09:15:03.624Z,0.9
2023-07-23T09:20:04.244Z,1.0
2023-07-23T09:25:05.010Z,1.0
2023-07-23T09:30:05.761Z,1.0
2023-07-23T09:35:06.591Z,1.0
2023-07-23T09:40:07.295Z,0.9
2023-07-23T09:45:08.005Z,1.1
2023-07-23T09:50:09.004Z,1.0
2023-07-23T09:55:09.540Z,1.1
2023-07-23T10:00:10.311Z,0.9
2023-07-23T10:05:11.043Z,1.1
2023-07-23T10:10:11.856Z,0.9
2023-07-23T10:15:12.584Z,0.9
2023-07-23T10:20:13.429Z,1.1
2023-07-23T10:25:28.687Z,0.9
2023-07-23T10:30:14.978Z,0.9
2023-07-23T10:35:15.825Z,1.1
2023-07-23T10:40:16.646Z,1.0
2023-07-23T10:45:17.639Z,0.7
2023-07-23T10:50:18.424Z,0.7
2023-07-23T10:55:18.965Z,0.8
2023-07-23T11:00:19.912Z,0.8
2023-07-23T11:05:20.742Z,0.7
2023-07-23T11:10:21.455Z,1.0
2023-07-23T11:15:22.203Z,1.0
2023-07-23T11:20:23.115Z,0.8
2023-07-23T11:25:23.938Z,0.8
2023-07-23T11:30:24.860Z,0.9
2023-07-23T11:35:25.635Z,0.9
2023-07-23T11:40:26.426Z,0.9
2023-07-23T11:45:27.128Z,0.8
2023-07-23T11:50:28.114Z,0.9
2023-07-23T11:55:28.834Z,0.8
2023-07-23T12:00:29.682Z,0.7
2023-07-23T12:05:30.586Z,0.7
2023-07-23T12:10:31.276Z,0.8
2023-07-23T12:15:32.050Z,0.8
2023-07-23T12:20:33.071Z,0.7
2023-07-23T12:25:33.821Z,0.7
2023-07-23T12:30:34.668Z,0.8
2023-07-23T12:35:35.630Z,0.8
2023-07-23T12:40:36.142Z,0.8
2023-07-23T12:45:37.270Z,0.9
2023-07-23T12:50:37.838Z,0.8
2023-07-23T12:55:38.737Z,0.7
2023-07-23T13:00:39.482Z,1.2
2023-07-23T13:05:40.281Z,1.1
2023-07-23T13:10:40.995Z,0.9
2023-07-23T13:15:41.894Z,0.5
2023-07-23T13:20:42.799Z,0.6
2023-07-23T13:25:43.567Z,1.0
2023-07-23T13:30:44.339Z,0.9
2023-07-23T13:35:45.101Z,0.9
2023-07-23T13:40:45.890Z,0.9
2023-07-23T13:45:46.867Z,0.8
2023-07-23T13:50:51.473Z,1.0
2023-07-23T13:55:48.201Z,0.9
2023-07-23T14:00:49.032Z,0.9
2023-07-23T14:10:50.651Z,0.9
2023-07-23T14:15:51.456Z,0.8
2023-07-23T14:20:53.364Z,0.7
2023-07-23T14:25:53.040Z,0.8
2023-07-23T14:30:54.345Z,0.8
2023-07-23T14:35:54.875Z,0.8
2023-07-23T14:40:55.593Z,0.9
2023-07-23T14:50:57.342Z,1.0
2023-07-23T14:55:57.965Z,0.8
2023-07-23T15:00:58.805Z,0.9
2023-07-23T15:05:59.780Z,1.0
2023-07-23T15:11:02.897Z,0.9
2023-07-23T15:16:01.363Z,0.9
2023-07-23T15:21:02.179Z,1.0
2023-07-23T15:26:02.972Z,1.0
2023-07-23T15:31:03.739Z,0.9
2023-07-23T15:36:04.607Z,1.1
2023-07-23T15:41:05.406Z,1.2
2023-07-23T15:46:06.270Z,1.6
2023-07-23T15:51:07.061Z,1.2
2023-07-23T15:56:15.066Z,1.2
2023-07-23T16:01:08.749Z,1.1
2023-07-23T16:06:09.625Z,1.0
2023-07-23T16:11:10.347Z,1.4
2023-07-23T16:16:11.143Z,1.1
2023-07-23T16:21:12.047Z,1.3
2023-07-23T16:26:12.747Z,1.1
2023-07-23T16:31:13.634Z,1.0
2023-07-23T16:36:14.461Z,1.4
2023-07-23T16:41:15.211Z,1.4
2023-07-23T16:46:16.053Z,1.0
2023-07-23T16:51:17.195Z,1.2
2023-07-23T16:56:17.589Z,1.0
2023-07-23T17:01:18.520Z,0.9
2023-07-23T17:06:19.295Z,0.9
2023-07-23T17:11:20.008Z,1.3
2023-07-23T17:16:20.905Z,1.2
2023-07-23T17:21:21.713Z,0.9
2023-07-23T17:26:22.481Z,1.0
2023-07-23T17:31:23.360Z,0.9
2023-07-23T17:36:24.142Z,0.9
2023-07-23T17:41:25.002Z,0.7
2023-07-23T17:46:25.975Z,0.9
2023-07-23T17:51:27.068Z,0.8
2023-07-23T17:56:27.914Z,1.0
2023-07-23T18:01:31.126Z,0.9
2023-07-23T18:06:29.460Z,0.8
2023-07-23T18:11:29.917Z,0.9
2023-07-23T18:16:31.060Z,0.8
2023-07-23T18:21:31.655Z,1.0
2023-07-23T18:26:32.725Z,1.0
2023-07-23T18:31:35.916Z,0.8
2023-07-23T18:36:34.414Z,0.7
2023-07-23T18:41:35.161Z,1.1
2023-07-23T18:46:36.106Z,0.9
2023-07-23T18:51:37.064Z,0.8
2023-07-23T18:56:37.694Z,0.8
2023-07-23T19:01:38.590Z,1.0
2023-07-23T19:06:39.489Z,0.8
2023-07-23T19:11:40.304Z,0.9
2023-07-23T19:16:41.146Z,1.2
2023-07-23T19:21:42.193Z,0.8
2023-07-23T19:26:42.851Z,1.2
2023-07-23T19:31:43.720Z,1.1
2023-07-23T19:36:44.578Z,1.0
2023-07-23T19:41:45.318Z,0.8
2023-07-23T19:46:46.114Z,0.8
2023-07-23T19:51:47.342Z,0.9
2023-07-23T19:56:47.708Z,1.0
2023-07-23T20:01:48.553Z,1.0
2023-07-23T20:06:49.403Z,0.8
2023-07-23T20:11:50.078Z,1.0
2023-07-23T20:16:50.980Z,1.1
2023-07-23T20:21:51.771Z,1.6
2023-07-23T20:26:52.524Z,1.5
2023-07-23T20:31:53.224Z,1.5
2023-07-23T20:36:54.160Z,1.0
2023-07-23T20:41:54.945Z,1.2
2023-07-23T20:46:55.773Z,1.0
2023-07-23T20:51:56.603Z,1.3
2023-07-23T20:56:57.134Z,1.1
2023-07-23T21:01:58.018Z,1.1
2023-07-23T21:06:58.897Z,1.2
2023-07-23T21:11:59.620Z,1.2
2023-07-23T21:17:00.602Z,1.0
2023-07-23T21:22:01.203Z,1.2
2023-07-23T21:27:02.016Z,1.4
2023-07-23T21:32:02.775Z,1.1
2023-07-23T21:37:03.641Z,1.2
2023-07-23T21:42:04.525Z,1.2
2023-07-23T21:47:05.116Z,1.2
2023-07-23T21:52:06.126Z,1.5
2023-07-23T21:57:06.598Z,1.4
2023-07-23T22:02:07.464Z,1.3
2023-07-23T22:07:08.176Z,1.5
2023-07-23T22:12:08.939Z,1.1
2023-07-23T22:17:09.669Z,1.2
2023-07-23T22:22:10.491Z,0.9
2023-07-23T22:27:11.098Z,1.1
2023-07-23T22:32:11.861Z,1.3
2023-07-23T22:37:12.775Z,0.9
2023-07-23T22:42:13.447Z,0.9
2023-07-23T22:47:14.105Z,0.9
2023-07-23T22:52:15.147Z,1.2
2023-07-23T22:57:15.687Z,1.1
2023-07-23T23:02:16.513Z,1.0
2023-07-23T23:07:17.217Z,1.1
2023-07-23T23:12:18.014Z,0.9
2023-07-23T23:17:18.872Z,0.9
2023-07-23T23:22:19.676Z,1.0
2023-07-23T23:27:20.343Z,1.0
2023-07-23T23:32:21.079Z,1.4
2023-07-23T23:37:21.932Z,0.8
2023-07-23T23:42:22.667Z,1.1
2023-07-23T23:47:23.463Z,0.9
2023-07-23T23:52:24.202Z,1.0
2023-07-23T23:57:25.111Z,1.0
